Noble, Ohio
Current Conditions -  °F | °C
As of 6:45 AM on Tuesday 21 Oct 2014 (Local Time) from KCGF Reporting Station
Drizzle Drizzle  
Wind Chill: 52°   Ceiling: 2500
Heat Index: 52°   Visibility: 6mi
Dew Point: 50°   Wind: 12mph
Humidity: 94%   Direction: 360°N
Pressure: 29.86"   Gusts: NA
Location:  41.6046°N, 81.5°W
Report Text: KCGF 211045Z 36010KT 6SM -DZ SCT008 BKN025 OVC040 11/10 A2986
Loading
Personal Weather Stations






























Interactive Weather Map New forecast layout! Learn more

10-Day Weather Forecast

Advertisements
Track Severe Weather on mobile